Time;durP1;ratioP1;P1;durP2;ratioP2;P2;SDS_P1;SDS_P2;PMS_P1;PMS_P2;Temp;Humidity;BMP_temperature;BMP_pressure;BME280_temperature;BME280_humidity;BME280_pressure;Samples;Min_cycle;Max_cycle;Signal;HPM_P1;HPM_P2
2022/10/10 00:03:07;;;;;;;;;;;;;;;;;;;;;
2022/10/10 00:06:15;;;;;;;;;;;;;;;;;;;;;
2022/10/10 00:09:21;;;;;;;8.17;3.97;;;10.60;1.00;;;;;;6275779;22;20949;-88
2022/10/10 00:11:56;;;;;;;5.33;4.00;;;10.50;1.00;;;;;;6256033;22;20722;-88
2022/10/10 00:14:44;;;;;;;5.70;4.20;;;10.40;1.00;;;;;;6250202;22;20432;-88
2022/10/10 00:31:00;;;;;;;6.60;3.70;;;10.20;95.70;;;;;;6254718;22;20413;-88
2022/10/10 00:33:56;;;;;;;;;;;;;;;;;;;;;
2022/10/10 00:37:21;;;;;;;;;;;;;;;;;;;;;
2022/10/10 00:40:04;;;;;;;;;;;;;;;;;;;;;
2022/10/10 00:46:19;;;;;;;8.65;4.82;;;10.10;99.90;;;;;;6251781;22;20473;-87
2022/10/10 00:53:12;;;;;;;8.23;4.53;;;10.00;99.90;;;;;;6264890;22;20638;-87
2022/10/10 01:20:58;;;;;;;5.22;4.10;;;9.80;99.90;;;;;;6252512;22;20618;-87
2022/10/10 01:23:35;;;;;;;6.75;3.80;;;9.70;99.90;;;;;;6276976;22;20184;-88
2022/10/10 01:26:16;;;;;;;6.60;4.90;;;9.80;99.90;;;;;;6247930;22;20653;-88
2022/10/10 01:28:45;;;;;;;6.10;3.73;;;9.70;99.90;;;;;;6248109;22;20479;-89
2022/10/10 01:31:14;;;;;;;6.13;4.00;;;9.70;1.00;;;;;;6247267;22;20401;-88
2022/10/10 01:34:31;;;;;;;5.57;3.73;;;9.70;1.00;;;;;;6247386;22;20497;-87
2022/10/10 01:37:20;;;;;;;6.33;4.67;;;9.70;1.00;;;;;;6149585;23;20476;-87
2022/10/10 01:40:31;;;;;;;;;;;;;;;;;;;;;
2022/10/10 01:43:03;;;;;;;4.60;3.47;;;9.60;1.00;;;;;;6243271;22;20482;-87
2022/10/10 01:49:15;;;;;;;6.60;3.95;;;9.60;1.00;;;;;;6253138;22;20404;-87
2022/10/10 01:52:11;;;;;;;4.85;3.75;;;9.60;99.90;;;;;;6242790;22;20491;-87
2022/10/10 01:55:10;;;;;;;6.20;3.87;;;9.60;99.90;;;;;;6274157;22;20594;-87
2022/10/10 01:58:03;;;;;;;7.15;4.40;;;9.60;99.90;;;;;;6274972;22;20477;-87
2022/10/10 02:00:39;;;;;;;7.40;4.40;;;9.60;99.90;;;;;;6247789;22;20194;-88
2022/10/10 02:03:40;;;;;;;6.53;4.10;;;9.60;99.90;;;;;;6274900;22;20398;-88
2022/10/10 02:36:33;;;;;;;8.77;4.63;;;9.40;99.90;;;;;;6251826;22;20473;-87
2022/10/10 02:38:59;;;;;;;7.67;4.40;;;9.40;99.90;;;;;;6264516;22;20391;-87
2022/10/10 02:41:38;;;;;;;5.90;3.93;;;9.40;99.90;;;;;;6274130;22;20375;-88
2022/10/10 02:44:35;;;;;;;;;;;;;;;;;;;;;
2022/10/10 03:10:36;;;;;;;;;;;;;;;;;;;;;
2022/10/10 03:12:54;;;;;;;6.82;4.10;;;9.30;99.90;;;;;;6263109;22;20218;-88
2022/10/10 03:19:07;;;;;;;;;;;;;;;;;;;;;
2022/10/10 03:25:51;;;;;;;7.67;4.80;;;9.40;5.30;;;;;;6267428;22;20168;-87
2022/10/10 03:28:44;;;;;;;6.47;4.40;;;9.40;1.00;;;;;;6282879;22;20477;-86
2022/10/10 03:38:45;;;;;;;8.63;4.32;;;9.30;1.00;;;;;;6254388;22;20160;-87
2022/10/10 03:41:50;;;;;;;10.98;5.70;;;9.30;1.00;;;;;;6245977;22;20485;-87
2022/10/10 03:44:34;;;;;;;9.93;4.37;;;9.30;1.00;;;;;;6247135;22;20159;-88
2022/10/10 03:48:06;;;;;;;9.80;3.97;;;9.30;1.00;;;;;;6274142;22;20359;-87
2022/10/10 03:51:13;;;;;;;;;;;;;;;;;;;;;
2022/10/10 04:03:09;;;;;;;;;;;;;;;;;;;;;
2022/10/10 04:09:21;;;;;;;11.60;5.28;;;9.30;99.90;;;;;;6249740;22;20152;-87
2022/10/10 04:19:12;;;;;;;;;;;;;;;;;;;;;
2022/10/10 04:28:59;;;;;;;10.90;4.80;;;9.20;1.00;;;;;;6256205;22;20172;-87
2022/10/10 04:32:06;;;;;;;;;;;;;;;;;;;;;
2022/10/10 04:38:20;;;;;;;;;;;;;;;;;;;;;
2022/10/10 04:41:18;;;;;;;;;;;;;;;;;;;;;
2022/10/10 04:54:17;;;;;;;;;;;;;;;;;;;;;
2022/10/10 05:03:10;;;;;;;;;;;;;;;;;;;;;
2022/10/10 05:15:37;;;;;;;7.28;4.15;;;9.00;1.00;;;;;;6274553;22;20622;-87
2022/10/10 05:18:41;;;;;;;;;;;;;;;;;;;;;
2022/10/10 05:24:45;;;;;;;;;;;;;;;;;;;;;
2022/10/10 05:27:23;;;;;;;;;;;;;;;;;;;;;
2022/10/10 05:30:48;;;;;;;;;;;;;;;;;;;;;
2022/10/10 05:40:21;;;;;;;;;;;;;;;;;;;;;
2022/10/10 05:43:36;;;;;;;9.40;7.13;;;9.20;1.00;;;;;;6275478;22;20596;-87
2022/10/10 05:46:41;;;;;;;;;;;;;;;;;;;;;
2022/10/10 05:49:30;;;;;;;9.25;4.88;;;9.30;99.90;;;;;;6270584;22;20230;-88
2022/10/10 05:52:38;;;;;;;;;;;;;;;;;;;;;
2022/10/10 05:55:17;;;;;;;;;;;;;;;;;;;;;
2022/10/10 05:57:45;;;;;;;13.77;8.32;;;9.50;1.00;;;;;;6274470;22;20227;-88
2022/10/10 06:00:22;;;;;;;14.85;7.28;;;9.50;1.00;;;;;;6273435;22;20223;-88
2022/10/10 06:02:57;;;;;;;16.40;7.07;;;9.60;99.90;;;;;;6275215;22;20167;-86
2022/10/10 06:05:23;;;;;;;13.30;5.97;;;9.70;99.90;;;;;;6248690;22;20394;-88
2022/10/10 06:07:55;;;;;;;21.73;8.40;;;9.80;1.00;;;;;;6276152;22;20375;-88
2022/10/10 06:11:00;;;;;;;;;;;;;;;;;;;;;
2022/10/10 06:13:29;;;;;;;15.87;7.47;;;10.00;96.20;;;;;;6275659;22;20470;-88
2022/10/10 06:19:43;;;;;;;8.93;5.97;;;10.40;99.90;;;;;;6250149;22;20418;-88
2022/10/10 06:22:39;;;;;;;15.50;6.30;;;10.60;1.00;;;;;;6246877;22;20410;-89
2022/10/10 06:25:35;;;;;;;;;;;;;;;;;;;;;
2022/10/10 06:28:02;;;;;;;19.10;7.87;;;11.10;99.90;;;;;;6275544;22;20508;-87
2022/10/10 06:30:38;;;;;;;15.60;8.50;;;11.30;1.00;;;;;;6247823;22;20394;-87
2022/10/10 06:33:04;;;;;;;9.67;4.93;;;11.50;1.00;;;;;;6246915;22;20429;-87
2022/10/10 06:35:29;;;;;;;13.13;8.63;;;11.80;99.90;;;;;;6274229;22;20414;-87
2022/10/10 06:37:55;;;;;;;11.97;6.67;;;14.00;99.90;;;;;;6247476;22;20169;-88
2022/10/10 06:40:28;;;;;;;11.30;7.10;;;17.80;1.00;;;;;;6247735;22;20666;-87
2022/10/10 06:46:39;;;;;;;;;;;;;;;;;;;;;
2022/10/10 06:53:03;;;;;;;;;;;;;;;;;;;;;
2022/10/10 06:56:21;;;;;;;13.03;5.83;;;27.80;99.90;;;;;;6274925;22;20808;-88
2022/10/10 06:59:12;;;;;;;8.20;5.67;;;28.40;99.90;;;;;;6246241;22;20394;-90
2022/10/10 07:02:02;;;;;;;;;;;;;;;;;;;;;
2022/10/10 07:05:00;;;;;;;13.50;5.40;;;29.40;99.90;;;;;;6276401;22;20443;-86
2022/10/10 07:14:40;;;;;;;;;;;;;;;;;;;;;
2022/10/10 07:17:36;;;;;;;7.80;4.73;;;29.10;99.90;;;;;;6273178;22;20435;-86
2022/10/10 07:31:00;;;;;;;6.03;4.70;;;25.50;98.40;;;;;;6252226;22;20379;-89
2022/10/10 08:54:29;;;;;;;;;;;;;;;;;;;;;
2022/10/10 10:33:31;;;;;;;;;;;;;;;;;;;;;
2022/10/10 10:40:11;;;;;;;5.70;2.33;;;35.80;24.20;;;;;;6170440;23;20960;-82
2022/10/10 10:43:03;;;;;;;7.27;1.90;;;35.50;24.30;;;;;;6252086;22;20383;-81
2022/10/10 10:50:05;;;;;;;;;;;;;;;;;;;;;
2022/10/10 10:56:24;;;;;;;15.80;2.93;;;34.30;25.20;;;;;;6280191;22;20351;-80
2022/10/10 10:59:18;;;;;;;12.10;2.50;;;33.30;23.00;;;;;;6253623;22;20470;-81
2022/10/10 11:01:47;;;;;;;10.07;2.13;;;33.00;23.40;;;;;;6253977;22;20407;-81
2022/10/10 11:04:24;;;;;;;13.20;3.00;;;33.10;25.40;;;;;;6253163;22;20406;-81
2022/10/10 14:01:28;;;;;;;;;;;;;;;;;;;;;
2022/10/10 14:05:01;;;;;;;10.50;4.07;;;24.20;49.60;;;;;;6202059;23;20490;-89
2022/10/10 14:08:07;;;;;;;;;;;;;;;;;;;;;
2022/10/10 14:30:40;;;;;;;;;;;;;;;;;;;;;
2022/10/10 14:34:13;;;;;;;14.90;4.47;;;22.30;67.30;;;;;;6211427;23;20496;-89
2022/10/10 14:37:20;;;;;;;;;;;;;;;;;;;;;
2022/10/10 14:43:43;;;;;;;8.37;3.73;;;21.60;78.70;;;;;;6197792;23;20394;-89
2022/10/10 14:46:29;;;;;;;;;;;;;;;;;;;;;
2022/10/10 14:49:57;;;;;;;;;;;;;;;;;;;;;
2022/10/10 14:52:56;;;;;;;;;;;;;;;;;;;;;
2022/10/10 14:55:46;;;;;;;11.10;3.77;;;20.80;94.80;;;;;;6221135;23;20423;-89
2022/10/10 15:02:23;;;;;;;;;;;;;;;;;;;;;
2022/10/10 15:14:59;;;;;;;11.77;3.27;;;21.30;99.90;;;;;;6193603;23;20401;-89
2022/10/10 15:26:55;;;;;;;9.30;3.72;;;21.70;99.90;;;;;;6149162;23;20468;-88
2022/10/10 15:33:10;;;;;;;12.27;3.77;;;21.60;99.90;;;;;;6197545;23;20896;-88
2022/10/10 15:36:11;;;;;;;16.87;7.83;;;21.30;99.90;;;;;;6209518;23;20440;-88
2022/10/10 15:39:17;;;;;;;16.73;12.93;;;21.20;99.90;;;;;;6179113;23;20383;-88
2022/10/10 15:42:35;;;;;;;12.80;8.47;;;21.00;99.90;;;;;;6214189;23;20467;-88
2022/10/10 15:45:28;;;;;;;;;;;;;;;;;;;;;
2022/10/10 15:51:52;;;;;;;10.13;4.07;;;20.50;99.90;;;;;;6196305;23;20387;-88
2022/10/10 15:54:52;;;;;;;;;;;;;;;;;;;;;
2022/10/10 15:57:25;;;;;;;;;;;;;;;;;;;;;
2022/10/10 16:03:38;;;;;;;;;;;;;;;;;;;;;
2022/10/10 16:10:35;;;;;;;8.23;3.70;;;19.70;99.90;;;;;;6151907;23;20445;-89
2022/10/10 16:13:31;;;;;;;;;;;;;;;;;;;;;
2022/10/10 16:16:15;;;;;;;;;;;;;;;;;;;;;
2022/10/10 16:19:23;;;;;;;;;;;;;;;;;;;;;
2022/10/10 16:28:33;;;;;;;7.43;4.60;;;19.20;99.90;;;;;;6203734;23;20393;-88
2022/10/10 16:37:30;;;;;;;;;;;;;;;;;;;;;
2022/10/10 16:40:43;;;;;;;11.40;5.67;;;18.80;99.90;;;;;;6213746;23;20438;-88
2022/10/10 16:43:50;;;;;;;14.03;6.40;;;18.70;99.90;;;;;;6212211;23;20508;-89
2022/10/10 16:46:35;;;;;;;;;;;;;;;;;;;;;
2022/10/10 16:52:37;;;;;;;;;;;;;;;;;;;;;
2022/10/10 16:56:12;;;;;;;;;;;;;;;;;;;;;
2022/10/10 16:58:49;;;;;;;8.33;6.77;;;18.30;99.90;;;;;;6206746;23;20392;-88
2022/10/10 17:05:00;;;;;;;9.67;6.50;;;18.20;1.00;;;;;;6198272;23;20475;-89
2022/10/10 17:07:29;;;;;;;19.70;7.03;;;18.20;1.00;;;;;;6197365;23;20463;-88
2022/10/10 17:10:17;;;;;;;;;;;;;;;;;;;;;
2022/10/10 17:13:06;;;;;;;10.60;5.43;;;18.00;1.00;;;;;;6212170;23;20469;-88
2022/10/10 17:22:40;;;;;;;10.90;4.73;;;17.60;99.90;;;;;;6199163;23;20464;-87
2022/10/10 17:25:19;;;;;;;;;;;;;;;;;;;;;
2022/10/10 17:31:20;;;;;;;8.37;5.70;;;17.30;1.00;;;;;;6191983;23;20372;-88
2022/10/10 17:33:46;;;;;;;8.43;6.00;;;17.30;1.00;;;;;;6213122;23;21029;-88
2022/10/10 17:36:40;;;;;;;;;;;;;;;;;;;;;
2022/10/10 17:39:59;;;;;;;;;;;;;;;;;;;;;
2022/10/10 17:43:19;;;;;;;;;;;;;;;;;;;;;
2022/10/10 17:46:40;;;;;;;;;;;;;;;;;;;;;
2022/10/10 17:56:44;;;;;;;;;;;;;;;;;;;;;
2022/10/10 18:03:08;;;;;;;;;;;;;;;;;;;;;
2022/10/10 18:09:50;;;;;;;5.30;2.40;;;16.50;99.90;;;;;;6192944;23;20439;-87
2022/10/10 18:21:52;;;;;;;;;;;;;;;;;;;;;
2022/10/10 18:27:27;;;;;;;3.90;1.80;;;16.50;99.90;;;;;;6189256;23;20424;-88
2022/10/10 18:30:11;;;;;;;7.20;1.80;;;16.50;97.20;;;;;;6214917;23;20383;-88
2022/10/10 18:32:36;;;;;;;3.90;1.50;;;16.50;1.00;;;;;;6214526;23;20838;-85
2022/10/10 18:35:24;;;;;;;14.03;2.00;;;16.40;1.00;;;;;;6213042;23;20396;-85
2022/10/10 18:40:46;;;;;;;5.07;1.80;;;16.40;1.00;;;;;;6198975;23;20963;-87
2022/10/10 18:43:21;;;;;;;3.13;1.27;;;16.30;1.00;;;;;;6217098;23;20426;-87
2022/10/10 18:46:04;;;;;;;7.17;2.10;;;16.30;1.00;;;;;;6217262;23;20217;-86
2022/10/10 18:48:40;;;;;;;;;;;;;;;;;;;;;
2022/10/10 18:51:15;;;;;;;9.90;1.90;;;16.30;1.00;;;;;;6216860;23;20459;-86
2022/10/10 18:53:44;;;;;;;14.33;2.57;;;16.30;1.00;;;;;;6216506;23;20470;-86
2022/10/10 18:56:22;;;;;;;6.80;2.30;;;16.30;1.00;;;;;;6189651;23;20408;-87
2022/10/10 18:58:55;;;;;;;7.20;1.50;;;16.30;1.00;;;;;;6216152;23;20361;-86
2022/10/10 19:02:18;;;;;;;6.27;2.13;;;16.30;1.00;;;;;;6189246;23;20433;-88
2022/10/10 19:04:46;;;;;;;7.07;1.73;;;16.20;1.00;;;;;;6206655;23;20411;-86
2022/10/10 19:07:14;;;;;;;5.10;1.77;;;16.20;1.00;;;;;;6216428;23;20508;-87
2022/10/10 19:09:50;;;;;;;8.60;2.73;;;16.20;1.00;;;;;;6189974;23;20479;-88
2022/10/10 19:12:46;;;;;;;;;;;;;;;;;;;;;
2022/10/10 19:15:13;;;;;;;10.13;2.43;;;16.20;1.00;;;;;;6214981;23;20451;-86
2022/10/10 19:17:46;;;;;;;9.27;1.90;;;16.10;1.00;;;;;;6216470;23;20837;-86
2022/10/10 19:20:39;;;;;;;;;;;;;;;;;;;;;
2022/10/10 19:23:18;;;;;;;;;;;;;;;;;;;;;
2022/10/10 19:26:12;;;;;;;8.87;2.37;;;16.00;1.00;;;;;;6214359;23;20500;-85
2022/10/10 19:28:45;;;;;;;;;;;;;;;;;;;;;
2022/10/10 19:31:29;;;;;;;;;;;;;;;;;;;;;
2022/10/10 19:34:12;;;;;;;6.33;2.03;;;15.90;1.00;;;;;;6215105;23;20490;-88
2022/10/10 19:36:49;;;;;;;11.53;2.60;;;15.90;1.00;;;;;;6186189;23;20463;-87
2022/10/10 19:40:03;;;;;;;;;;;;;;;;;;;;;
2022/10/10 19:42:38;;;;;;;8.40;2.00;;;15.80;1.00;;;;;;6213911;23;20456;-86
2022/10/10 19:45:23;;;;;;;9.30;2.43;;;15.60;1.00;;;;;;6216357;23;20503;-85
2022/10/10 19:47:51;;;;;;;5.43;1.90;;;15.60;1.00;;;;;;6217506;23;20733;-85
2022/10/10 19:50:22;;;;;;;9.30;2.40;;;15.40;1.00;;;;;;6217777;23;20839;-85
2022/10/10 19:52:47;;;;;;;8.83;2.67;;;15.40;1.00;;;;;;6217241;23;20437;-85
2022/10/10 19:55:17;;;;;;;17.23;2.63;;;15.20;1.00;;;;;;6217513;23;20368;-85
2022/10/10 19:57:45;;;;;;;9.67;2.67;;;15.10;1.00;;;;;;6189418;23;20187;-85
2022/10/10 20:00:17;;;;;;;8.30;2.13;;;15.00;1.00;;;;;;6190029;23;20385;-86
2022/10/10 20:02:45;;;;;;;9.10;2.70;;;15.00;1.00;;;;;;6217721;23;20362;-86
2022/10/10 20:05:17;;;;;;;6.87;3.43;;;14.90;1.00;;;;;;6216360;23;20401;-85
2022/10/10 20:07:43;;;;;;;8.17;1.80;;;14.80;1.00;;;;;;6189649;23;20411;-86
2022/10/10 20:10:12;;;;;;;12.27;3.30;;;14.70;1.00;;;;;;6190668;23;20950;-87
2022/10/10 20:16:58;;;;;;;;;;;;;;;;;;;;;
2022/10/10 20:23:13;;;;;;;;;;;;;;;;;;;;;
2022/10/10 20:33:05;;;;;;;;;;;;;;;;;;;;;
2022/10/10 20:35:57;;;;;;;13.80;2.97;;;14.00;99.90;;;;;;6218052;23;20437;-90
2022/10/10 20:42:24;;;;;;;20.17;5.30;;;13.90;99.90;;;;;;6198293;23;20458;-89
2022/10/10 20:48:26;;;;;;;11.30;3.63;;;13.70;99.90;;;;;;6195674;23;20439;-89
2022/10/10 20:54:20;;;;;;;8.47;2.50;;;13.60;1.00;;;;;;6195831;23;20412;-89
2022/10/10 20:57:26;;;;;;;;;;;;;;;;;;;;;
2022/10/10 21:00:21;;;;;;;13.00;2.93;;;13.50;1.00;;;;;;6213120;23;20481;-90
2022/10/10 21:06:24;;;;;;;7.83;2.43;;;13.40;1.00;;;;;;6200851;23;20428;-89
2022/10/10 21:09:20;;;;;;;12.60;3.10;;;13.30;1.00;;;;;;6216863;23;20757;-90
2022/10/10 21:12:02;;;;;;;;;;;;;;;;;;;;;
2022/10/10 21:15:08;;;;;;;16.80;4.07;;;13.20;99.90;;;;;;6216452;23;20464;-88
2022/10/10 21:18:27;;;;;;;;;;;;;;;;;;;;;
2022/10/10 21:21:35;;;;;;;;;;;;;;;;;;;;;
2022/10/10 21:24:09;;;;;;;14.57;3.60;;;13.00;1.00;;;;;;6213871;23;20779;-86
2022/10/10 21:27:05;;;;;;;12.30;3.97;;;13.00;1.00;;;;;;6215882;23;20929;-87
2022/10/10 21:29:56;;;;;;;10.33;3.23;;;12.90;1.00;;;;;;6215765;23;20377;-87
2022/10/10 21:32:51;;;;;;;;;;;;;;;;;;;;;
2022/10/10 21:35:37;;;;;;;;;;;;;;;;;;;;;
2022/10/10 21:38:31;;;;;;;;;;;;;;;;;;;;;
2022/10/10 21:41:18;;;;;;;8.27;2.90;;;12.80;94.10;;;;;;6216190;23;20418;-87
2022/10/10 21:43:50;;;;;;;11.37;3.90;;;12.70;99.90;;;;;;6189071;23;20408;-87
2022/10/10 21:46:29;;;;;;;13.63;2.97;;;12.60;99.90;;;;;;6215807;23;20404;-87
2022/10/10 21:49:05;;;;;;;;;;;;;;;;;;;;;
2022/10/10 21:52:04;;;;;;;11.70;3.60;;;12.60;1.00;;;;;;6215846;23;20448;-87
2022/10/10 21:54:55;;;;;;;8.63;3.20;;;12.50;1.00;;;;;;6200310;23;20433;-87
2022/10/10 21:57:43;;;;;;;9.60;3.27;;;12.50;1.00;;;;;;6216118;23;20455;-86
2022/10/10 22:00:26;;;;;;;9.73;3.50;;;12.40;1.00;;;;;;6190064;23;20902;-87
2022/10/10 22:03:27;;;;;;;17.87;3.83;;;12.40;1.00;;;;;;6216215;23;20887;-88
2022/10/10 22:12:43;;;;;;;;;;;;;;;;;;;;;
2022/10/10 22:18:28;;;;;;;12.03;3.97;;;12.10;1.00;;;;;;6194730;23;20378;-87
2022/10/10 22:21:25;;;;;;;10.80;3.50;;;12.10;1.00;;;;;;6165998;23;20407;-87
2022/10/10 22:24:24;;;;;;;;;;;;;;;;;;;;;
2022/10/10 22:37:42;;;;;;;18.60;5.13;;;11.90;99.90;;;;;;6195551;23;20782;-86
2022/10/10 22:43:51;;;;;;;19.27;4.57;;;11.70;1.00;;;;;;6194230;23;20405;-88
2022/10/10 22:46:35;;;;;;;;;;;;;;;;;;;;;
2022/10/10 22:49:39;;;;;;;;;;;;;;;;;;;;;
2022/10/10 22:52:50;;;;;;;;;;;;;;;;;;;;;
2022/10/10 22:55:44;;;;;;;15.93;5.50;;;11.50;99.90;;;;;;6215657;23;20452;-87
2022/10/10 22:58:50;;;;;;;;;;;;;;;;;;;;;
2022/10/10 23:02:07;;;;;;;;;;;;;;;;;;;;;
2022/10/10 23:05:01;;;;;;;;;;;;;;;;;;;;;
2022/10/10 23:08:24;;;;;;;15.93;5.60;;;11.40;1.00;;;;;;6213310;23;20962;-87
2022/10/10 23:11:14;;;;;;;11.83;4.77;;;11.30;1.00;;;;;;6213522;23;20535;-87
2022/10/10 23:14:30;;;;;;;;;;;;;;;;;;;;;
2022/10/10 23:23:53;;;;;;;;;;;;;;;;;;;;;
2022/10/10 23:30:17;;;;;;;13.00;6.30;;;11.10;99.90;;;;;;6167493;23;20416;-87
2022/10/10 23:40:04;;;;;;;12.00;6.67;;;11.10;1.00;;;;;;6169003;23;20471;-87
2022/10/10 23:43:28;;;;;;;;;;;;;;;;;;;;;
2022/10/10 23:46:22;;;;;;;14.37;6.07;;;11.00;1.00;;;;;;6207634;23;20504;-87
2022/10/10 23:49:08;;;;;;;12.10;6.30;;;11.00;1.00;;;;;;6171152;23;20427;-86
2022/10/10 23:52:31;;;;;;;;;;;;;;;;;;;;;
2022/10/10 23:55:38;;;;;;;12.37;7.07;;;11.00;1.00;;;;;;6215551;23;20491;-87
2022/10/10 23:59:01;;;;;;;;;;;;;;;;;;;;;
